Time;durP1;ratioP1;P1;durP2;ratioP2;P2;SDS_P1;SDS_P2;PMS_P1;PMS_P2;Temp;Humidity;BMP_temperature;BMP_pressure;BME280_temperature;BME280_humidity;BME280_pressure;Samples;Min_cycle;Max_cycle;Signal;HPM_P1;HPM_P2
2023/05/16 00:00:58;;;;;;;10.23;9.13;;;;;;;7.29;100.00;92679.28;2069963;28;20109;-79
2023/05/16 00:02:06;;;;;;;9.00;8.07;;;;;;;7.36;100.00;92681.81;2079464;28;20045;-80
2023/05/16 00:03:13;;;;;;;9.13;8.23;;;;;;;7.48;100.00;92683.13;2082189;28;20512;-79
2023/05/16 00:04:21;;;;;;;10.60;8.73;;;;;;;7.48;100.00;92688.44;2075647;28;20032;-80
2023/05/16 00:05:28;;;;;;;9.93;8.50;;;;;;;7.51;100.00;92691.06;2073286;28;20089;-80
2023/05/16 00:06:34;;;;;;;10.18;8.85;;;;;;;7.52;100.00;92691.81;2085472;28;20026;-82
2023/05/16 00:07:46;;;;;;;10.15;9.18;;;;;;;7.50;100.00;92691.44;2077008;28;20018;-79
2023/05/16 00:08:53;;;;;;;13.25;10.50;;;;;;;7.57;100.00;92692.06;2073280;28;20033;-79
2023/05/16 00:09:54;;;;;;;13.48;11.43;;;;;;;7.60;100.00;92687.88;2074973;28;20034;-79
2023/05/16 00:11:01;;;;;;;11.55;10.32;;;;;;;7.65;100.00;92684.72;2076752;28;20034;-79
2023/05/16 00:12:08;;;;;;;13.88;10.93;;;;;;;7.67;100.00;92686.97;2076954;28;20026;-82
2023/05/16 00:13:13;;;;;;;12.23;10.98;;;;;;;7.69;100.00;92684.69;2076574;28;20529;-79
2023/05/16 00:14:25;;;;;;;12.35;10.82;;;;;;;7.74;100.00;92684.19;2070858;28;20030;-79
2023/05/16 00:15:33;;;;;;;10.98;9.88;;;;;;;7.75;100.00;92685.69;2082759;28;20039;-82
2023/05/16 00:16:40;;;;;;;11.57;10.38;;;;;;;7.75;100.00;92683.03;2082508;28;20076;-79
2023/05/16 00:17:48;;;;;;;10.88;9.63;;;;;;;7.76;100.00;92687.19;2075219;28;20553;-80
2023/05/16 00:18:58;;;;;;;10.95;9.85;;;;;;;7.76;100.00;92684.53;2067765;28;20030;-80
2023/05/16 00:20:10;;;;;;;10.57;9.40;;;;;;;7.82;100.00;92685.56;2080002;28;20049;-80
2023/05/16 00:21:20;;;;;;;10.23;9.13;;;;;;;7.85;100.00;92686.66;2075350;28;20030;-80
2023/05/16 00:22:26;;;;;;;11.93;10.40;;;;;;;7.92;100.00;92683.88;2063259;28;20030;-79
2023/05/16 00:23:35;;;;;;;12.18;10.48;;;;;;;7.96;100.00;92681.91;2072045;28;20034;-79
2023/05/16 00:24:40;;;;;;;12.80;10.57;;;;;;;7.92;100.00;92684.63;2067229;28;20022;-79
2023/05/16 00:25:47;;;;;;;13.93;9.98;;;;;;;8.01;100.00;92684.81;2074711;28;20026;-83
2023/05/16 00:26:54;;;;;;;16.45;11.32;;;;;;;7.99;100.00;92687.16;2074524;28;20549;-80
2023/05/16 00:27:58;;;;;;;12.13;10.93;;;;;;;7.96;100.00;92682.66;2081926;28;20017;-81
2023/05/16 00:29:05;;;;;;;12.77;11.43;;;;;;;7.99;100.00;92679.16;2074331;28;20109;-81
2023/05/16 00:30:13;;;;;;;12.82;11.55;;;;;;;7.97;100.00;92675.41;2085158;28;20029;-83
2023/05/16 00:31:21;;;;;;;13.15;11.77;;;;;;;7.99;100.00;92676.50;2074750;28;20025;-80
2023/05/16 00:32:26;;;;;;;13.15;11.70;;;;;;;8.00;100.00;92678.00;2066625;28;20513;-83
2023/05/16 00:33:31;;;;;;;13.23;11.82;;;;;;;8.04;100.00;92678.69;2061108;28;20035;-81
2023/05/16 00:34:41;;;;;;;14.52;11.77;;;;;;;8.04;100.00;92676.03;2074780;28;20032;-81
2023/05/16 00:35:50;;;;;;;13.10;11.80;;;;;;;8.12;100.00;92668.66;2073610;28;20021;-80
2023/05/16 00:36:57;;;;;;;14.90;11.90;;;;;;;8.12;100.00;92670.53;2080962;28;20428;-81
2023/05/16 00:38:05;;;;;;;12.57;11.27;;;;;;;8.08;100.00;92671.38;2090113;28;20127;-81
2023/05/16 00:39:13;;;;;;;14.23;12.35;;;;;;;8.08;100.00;92673.31;2081364;28;20148;-80
2023/05/16 00:40:23;;;;;;;12.05;10.85;;;;;;;8.03;100.00;92669.22;2075427;28;20034;-80
2023/05/16 00:41:32;;;;;;;15.48;11.90;;;;;;;8.04;100.00;92673.38;2074242;28;20022;-81
2023/05/16 00:42:41;;;;;;;18.58;12.52;;;;;;;8.01;100.00;92671.50;2067455;28;20450;-82
2023/05/16 00:43:50;;;;;;;14.40;11.32;;;;;;;8.07;100.00;92669.88;2074547;28;20084;-81
2023/05/16 00:44:59;;;;;;;16.60;12.75;;;;;;;8.02;100.00;92673.00;2074557;28;20026;-81
2023/05/16 00:46:08;;;;;;;14.80;13.30;;;;;;;8.09;100.00;92674.78;2074584;28;20108;-82
2023/05/16 00:47:14;;;;;;;14.65;12.60;;;;;;;8.02;100.00;92670.34;2067734;28;20475;-81
2023/05/16 00:48:21;;;;;;;13.65;12.35;;;;;;;8.08;100.00;92667.97;2069202;28;20073;-82
2023/05/16 00:49:30;;;;;;;13.38;11.98;;;;;;;8.17;100.00;92672.75;2067085;28;20651;-81
2023/05/16 00:50:42;;;;;;;12.45;11.15;;;;;;;8.13;100.00;92670.16;2074908;28;20030;-82
2023/05/16 00:51:58;;;;;;;12.63;11.45;;;;;;;8.32;100.00;92673.94;2077607;28;20028;-82
2023/05/16 00:53:07;;;;;;;13.10;11.75;;;;;;;8.30;100.00;92670.97;2081586;28;20362;-81
2023/05/16 00:54:12;;;;;;;14.38;11.70;;;;;;;8.24;100.00;92668.00;2076081;28;20029;-80
2023/05/16 00:55:18;;;;;;;13.63;11.77;;;;;;;8.21;100.00;92665.41;2073798;28;20474;-80
2023/05/16 00:56:21;;;;;;;13.18;11.80;;;;;;;8.22;100.00;92667.69;2077251;28;20689;-81
2023/05/16 00:57:25;;;;;;;13.60;12.30;;;;;;;8.21;100.00;92668.84;2081372;28;20041;-81
2023/05/16 00:58:34;;;;;;;13.32;11.90;;;;;;;8.40;100.00;92675.34;2073453;28;20058;-81
2023/05/16 00:59:45;;;;;;;13.63;11.35;;;;;;;8.53;100.00;92670.88;2074850;28;20030;-82
2023/05/16 01:00:55;;;;;;;13.20;11.90;;;;;;;8.58;100.00;92665.06;2077477;28;20026;-81
2023/05/16 01:02:04;;;;;;;15.45;11.73;;;;;;;8.45;100.00;92664.19;2074209;28;20129;-82
2023/05/16 01:03:12;;;;;;;15.20;11.73;;;;;;;8.46;100.00;92662.28;2067038;28;20072;-80
2023/05/16 01:04:22;;;;;;;13.15;11.07;;;;;;;8.44;100.00;92660.03;2067034;28;20019;-82
2023/05/16 01:05:30;;;;;;;12.85;11.60;;;;;;;8.44;100.00;92665.38;2075643;28;20030;-81
2023/05/16 01:06:36;;;;;;;12.88;11.45;;;;;;;8.37;100.00;92665.50;2081990;28;20025;-81
2023/05/16 01:07:44;;;;;;;13.90;11.32;;;;;;;8.35;100.00;92656.41;2081560;28;20013;-81
2023/05/16 01:08:53;;;;;;;13.13;11.80;;;;;;;8.38;100.00;92666.25;2073917;28;20512;-81
2023/05/16 01:09:59;;;;;;;13.27;11.85;;;;;;;8.32;100.00;92657.97;2068962;28;20022;-82
2023/05/16 01:11:38;;;;;;;13.23;11.82;;;;;;;8.30;100.00;92655.00;2073540;28;20041;-81
2023/05/16 01:13:12;;;;;;;12.50;11.23;;;;;;;8.27;100.00;92653.88;2070206;28;20021;-80
2023/05/16 01:14:30;;;;;;;13.52;12.13;;;;;;;8.30;100.00;92658.41;2069107;28;20038;-81
2023/05/16 01:16:00;;;;;;;13.77;12.25;;;;;;;8.28;100.00;92650.06;2069910;28;20034;-82
2023/05/16 01:17:23;;;;;;;13.98;11.88;;;;;;;8.34;100.00;92661.00;2075700;28;20026;-82
2023/05/16 01:18:58;;;;;;;12.48;11.18;;;;;;;8.37;100.00;92656.78;2070943;28;20573;-81
2023/05/16 01:20:25;;;;;;;13.50;12.02;;;;;;;8.30;100.00;92650.41;2069281;28;20068;-80
2023/05/16 01:22:01;;;;;;;15.55;12.25;;;;;;;8.32;100.00;92656.06;2070605;28;20030;-81
2023/05/16 01:23:27;;;;;;;16.75;12.27;;;;;;;8.35;100.00;92654.50;2089012;28;20107;-81
2023/05/16 01:24:45;;;;;;;16.15;11.70;;;;;;;8.44;100.00;92656.63;2076551;28;20025;-81
2023/05/16 01:26:25;;;;;;;12.82;11.52;;;;;;;8.40;100.00;92654.03;2069439;28;20096;-81
2023/05/16 01:27:30;;;;;;;;;;;;;;;8.51;100.00;92659.13;2073619;28;20076;-81
2023/05/16 01:28:35;;;;;;;13.13;11.60;;;;;;;8.53;100.00;92657.56;2062412;28;19913;-81
2023/05/16 01:29:38;;;;;;;13.82;11.80;;;;;;;8.57;100.00;92660.16;2058555;28;20034;-81
2023/05/16 01:30:44;;;;;;;15.40;12.30;;;;;;;8.49;100.00;92656.13;2065342;28;20600;-81
2023/05/16 01:31:48;;;;;;;13.25;11.93;;;;;;;8.52;100.00;92650.75;2066091;28;20518;-82
2023/05/16 01:32:57;;;;;;;14.35;12.85;;;;;;;8.63;100.00;92652.41;2074060;28;20026;-82
2023/05/16 01:34:00;;;;;;;15.07;12.35;;;;;;;8.50;100.00;92654.97;2066021;28;20025;-81
2023/05/16 01:35:09;;;;;;;13.93;12.20;;;;;;;8.42;100.00;92656.28;2065802;28;20061;-81
2023/05/16 01:36:27;;;;;;;14.32;12.60;;;;;;;8.41;100.00;92654.78;2073976;28;20021;-82
2023/05/16 01:37:59;;;;;;;14.52;12.93;;;;;;;8.45;100.00;92655.47;2081159;28;20025;-82
2023/05/16 01:39:30;;;;;;;14.15;12.70;;;;;;;8.45;100.00;92653.53;2044462;29;20038;-80
2023/05/16 01:40:56;;;;;;;16.65;12.32;;;;;;;8.49;100.00;92645.50;2080580;28;20152;-81
2023/05/16 01:42:14;;;;;;;15.05;12.93;;;;;;;8.53;100.00;92649.56;2073612;28;20029;-81
2023/05/16 01:43:28;;;;;;;14.07;12.57;;;;;;;8.44;100.00;92654.72;2070137;28;20034;-81
2023/05/16 01:44:41;;;;;;;16.15;13.57;;;;;;;8.36;100.00;92656.00;2074783;28;20030;-81
2023/05/16 01:45:53;;;;;;;16.00;13.35;;;;;;;8.39;100.00;92652.53;2072958;28;20499;-81
2023/05/16 01:47:01;;;;;;;14.77;13.02;;;;;;;8.49;100.00;92651.56;2077938;28;20116;-81
2023/05/16 01:48:23;;;;;;;18.80;14.15;;;;;;;8.48;100.00;92649.31;2066324;28;20529;-81
2023/05/16 01:49:47;;;;;;;14.27;12.52;;;;;;;8.51;100.00;92653.81;2067596;28;20033;-81
2023/05/16 01:50:55;;;;;;;16.50;13.10;;;;;;;8.60;100.00;92655.91;2079052;28;20029;-82
2023/05/16 01:52:09;;;;;;;16.20;12.43;;;;;;;8.53;100.00;92657.56;2073431;28;20022;-81
2023/05/16 01:53:16;;;;;;;16.75;13.30;;;;;;;8.56;100.00;92653.34;2075023;28;20762;-82
2023/05/16 01:54:26;;;;;;;15.27;13.57;;;;;;;8.65;100.00;92648.19;2074433;28;20760;-80
2023/05/16 01:55:45;;;;;;;19.42;12.77;;;;;;;8.52;100.00;92650.75;2073876;28;20018;-80
2023/05/16 01:56:57;;;;;;;13.60;12.10;;;;;;;8.49;100.00;92650.81;2067356;28;20030;-81
2023/05/16 01:58:08;;;;;;;16.23;12.82;;;;;;;8.51;100.00;92648.47;2080027;28;20028;-81
2023/05/16 01:59:17;;;;;;;16.42;13.40;;;;;;;8.50;100.00;92649.66;2080847;28;20022;-82
2023/05/16 02:00:23;;;;;;;15.82;13.85;;;;;;;8.39;100.00;92652.53;2071087;28;20883;-81
2023/05/16 02:01:33;;;;;;;21.90;13.55;;;;;;;8.33;100.00;92659.47;2073330;28;20029;-82
2023/05/16 02:02:38;;;;;;;18.33;14.38;;;;;;;8.28;100.00;92654.63;2065942;28;20030;-81
2023/05/16 02:03:47;;;;;;;17.15;14.10;;;;;;;8.30;100.00;92649.66;2071366;28;20037;-81
2023/05/16 02:04:55;;;;;;;19.70;14.57;;;;;;;8.30;100.00;92658.41;2080948;28;20022;-82
2023/05/16 02:06:03;;;;;;;23.15;14.07;;;;;;;8.30;100.00;92652.31;2065878;28;20125;-80
2023/05/16 02:07:10;;;;;;;17.10;14.35;;;;;;;8.30;100.00;92655.00;2074408;28;20025;-82
2023/05/16 02:08:14;;;;;;;16.73;14.35;;;;;;;8.26;100.00;92656.97;2088797;28;20527;-81
2023/05/16 02:09:21;;;;;;;19.35;14.68;;;;;;;8.24;100.00;92652.03;2081053;28;20025;-80
2023/05/16 02:10:32;;;;;;;16.17;14.27;;;;;;;8.24;100.00;92660.03;2066284;28;20053;-81
2023/05/16 02:12:03;;;;;;;17.73;13.85;;;;;;;8.20;100.00;92655.94;2078698;28;20092;-80
2023/05/16 02:13:44;;;;;;;20.35;14.93;;;;;;;8.21;100.00;92652.88;2086778;28;20040;-81
2023/05/16 02:14:51;;;;;;;16.77;13.88;;;;;;;8.20;100.00;92655.94;2073643;28;20040;-81
2023/05/16 02:15:59;;;;;;;19.00;14.10;;;;;;;8.18;100.00;92647.63;2065424;28;20478;-81
2023/05/16 02:17:09;;;;;;;16.50;13.48;;;;;;;8.15;100.00;92651.84;2065261;28;20494;-81
2023/05/16 02:18:16;;;;;;;;;;;;;;;8.16;100.00;92652.59;2064054;28;20038;-81
2023/05/16 02:34:52;;;;;;;21.10;15.93;;;;;;;8.29;100.00;92662.19;2585253;22;20026;-81
2023/05/16 02:36:02;;;;;;;20.23;16.23;;;;;;;8.29;100.00;92661.47;2560889;23;20075;-81
2023/05/16 02:37:08;;;;;;;;;;;;;;;8.28;100.00;92658.03;2541185;23;20049;-81
2023/05/16 02:38:20;;;;;;;19.52;15.10;;;;;;;8.28;100.00;92665.28;2549998;23;19908;-80
2023/05/16 02:39:31;;;;;;;20.20;15.52;;;;;;;8.35;100.00;92659.09;2551033;23;20012;-80
2023/05/16 02:40:40;;;;;;;20.98;16.20;;;;;;;8.32;100.00;92663.31;2553128;23;20001;-80
2023/05/16 02:41:46;;;;;;;19.47;15.73;;;;;;;8.29;100.00;92656.88;2562980;23;20025;-80
2023/05/16 02:42:54;;;;;;;22.05;15.93;;;;;;;8.32;100.00;92660.63;2560913;23;20966;-82
2023/05/16 02:44:01;;;;;;;21.13;15.55;;;;;;;8.31;100.00;92664.47;2539644;23;20013;-81
2023/05/16 02:45:12;;;;;;;21.50;16.25;;;;;;;8.34;100.00;92661.00;2538797;23;20093;-82
2023/05/16 02:46:34;;;;;;;21.17;15.48;;;;;;;8.34;100.00;92666.31;2540795;23;20396;-81
2023/05/16 02:47:43;;;;;;;19.63;15.43;;;;;;;8.37;100.00;92667.41;2544866;23;20005;-80
2023/05/16 02:48:51;;;;;;;21.45;16.38;;;;;;;8.37;100.00;92660.19;2551719;23;20012;-81
2023/05/16 02:49:59;;;;;;;21.00;16.33;;;;;;;8.27;100.00;92661.88;2560995;23;20001;-81
2023/05/16 02:51:03;;;;;;;21.05;15.63;;;;;;;8.24;100.00;92660.03;2539386;23;20002;-81
2023/05/16 02:52:10;;;;;;;23.77;15.43;;;;;;;8.24;100.00;92664.59;2537424;23;20016;-81
2023/05/16 02:53:17;;;;;;;19.45;15.48;;;;;;;8.19;100.00;92657.84;2551372;23;20009;-83
2023/05/16 02:54:23;;;;;;;20.35;16.63;;;;;;;8.20;100.00;92658.59;2550252;23;20005;-80
2023/05/16 02:55:29;;;;;;;21.00;15.60;;;;;;;8.22;100.00;92665.03;2538724;23;20476;-80
2023/05/16 02:56:36;;;;;;;20.17;15.57;;;;;;;8.16;100.00;92655.25;2538715;23;20005;-83
2023/05/16 02:57:44;;;;;;;17.60;15.23;;;;;;;8.13;100.00;92654.19;2551024;23;20088;-80
2023/05/16 02:58:55;;;;;;;21.00;15.65;;;;;;;8.17;100.00;92654.88;2562261;23;20000;-80
2023/05/16 02:59:59;;;;;;;22.90;15.90;;;;;;;8.21;100.00;92642.25;2562751;23;20319;-81
2023/05/16 03:01:06;;;;;;;17.55;14.75;;;;;;;8.21;100.00;92652.88;2549321;23;20103;-80
2023/05/16 03:02:15;;;;;;;19.90;15.50;;;;;;;8.20;100.00;92651.38;2550832;23;20321;-84
2023/05/16 03:03:21;;;;;;;21.83;15.65;;;;;;;8.20;100.00;92654.03;2549950;23;20016;-80
2023/05/16 03:04:28;;;;;;;21.27;16.08;;;;;;;8.20;100.00;92659.34;2538461;23;20013;-81
2023/05/16 03:05:54;;;;;;;23.83;16.17;;;;;;;8.20;100.00;92651.38;2538529;23;20349;-79
2023/05/16 03:06:57;;;;;;;22.90;15.18;;;;;;;8.20;100.00;92650.63;2558568;23;20008;-80
2023/05/16 03:08:01;;;;;;;19.98;16.50;;;;;;;8.16;100.00;92648.03;2548582;23;20085;-79
2023/05/16 03:09:08;;;;;;;17.10;15.15;;;;;;;8.19;100.00;92649.13;2537872;23;20016;-83
2023/05/16 03:10:15;;;;;;;17.60;15.00;;;;;;;8.16;100.00;92652.59;2550577;23;20065;-80
2023/05/16 03:11:23;;;;;;;19.00;15.73;;;;;;;8.16;100.00;92650.69;2549832;23;20409;-81
2023/05/16 03:12:32;;;;;;;18.85;15.82;;;;;;;8.20;100.00;92651.38;2549843;23;20016;-80
2023/05/16 03:13:41;;;;;;;22.10;15.35;;;;;;;8.23;100.00;92652.47;2550202;23;20001;-79
2023/05/16 03:14:44;;;;;;;20.58;14.93;;;;;;;8.23;100.00;92647.88;2539373;23;20328;-80
2023/05/16 03:15:49;;;;;;;19.13;15.25;;;;;;;8.19;100.00;92651.78;2536572;23;20075;-83
2023/05/16 03:16:56;;;;;;;21.17;15.63;;;;;;;8.24;100.00;92648.63;2537763;23;20013;-81
2023/05/16 03:18:06;;;;;;;18.38;15.30;;;;;;;8.23;100.00;92649.81;2561916;23;19997;-81
2023/05/16 03:19:13;;;;;;;23.17;16.15;;;;;;;8.22;100.00;92649.06;2562507;23;20008;-81
2023/05/16 03:20:21;;;;;;;20.27;14.63;;;;;;;8.23;100.00;92658.53;2560444;23;20474;-81
2023/05/16 03:21:31;;;;;;;20.90;15.40;;;;;;;8.23;100.00;92650.56;2539785;23;20009;-81
2023/05/16 03:22:40;;;;;;;18.73;14.55;;;;;;;8.24;100.00;92654.72;2539456;23;20010;-81
2023/05/16 03:23:46;;;;;;;21.75;15.90;;;;;;;8.27;100.00;92656.56;2539414;23;20005;-81
2023/05/16 03:24:55;;;;;;;19.60;14.65;;;;;;;8.28;100.00;92655.38;2549612;23;20005;-82
2023/05/16 03:26:01;;;;;;;16.30;14.48;;;;;;;8.31;100.00;92659.91;2539035;23;20421;-82
2023/05/16 03:27:10;;;;;;;20.10;15.00;;;;;;;8.26;100.00;92655.06;2538482;23;20002;-81
2023/05/16 03:28:20;;;;;;;21.40;14.45;;;;;;;8.28;100.00;92657.31;2551886;23;20010;-82
2023/05/16 03:29:26;;;;;;;16.90;13.90;;;;;;;8.35;100.00;92659.09;2550348;23;20005;-81
2023/05/16 03:30:35;;;;;;;17.50;14.38;;;;;;;8.31;100.00;92656.47;2538705;23;20064;-81
2023/05/16 03:31:43;;;;;;;19.88;14.02;;;;;;;8.41;100.00;92652.13;2538942;23;20001;-81
2023/05/16 03:32:50;;;;;;;18.42;14.30;;;;;;;8.43;100.00;92658.56;2536076;23;20449;-82
2023/05/16 03:33:57;;;;;;;17.30;14.15;;;;;;;8.44;100.00;92660.03;2547013;23;20057;-81
2023/05/16 03:35:06;;;;;;;16.42;14.73;;;;;;;8.47;100.00;92655.78;2558003;23;20048;-81
2023/05/16 03:36:13;;;;;;;20.20;14.65;;;;;;;8.45;100.00;92650.88;2557837;23;20396;-80
2023/05/16 03:37:21;;;;;;;20.27;16.45;;;;;;;8.39;100.00;92654.47;2535024;23;20049;-80
2023/05/16 03:38:28;;;;;;;23.70;15.75;;;;;;;8.42;100.00;92654.38;2534997;23;20094;-81
2023/05/16 03:39:37;;;;;;;23.05;16.38;;;;;;;8.45;100.00;92655.47;2535446;23;20006;-81
2023/05/16 03:40:45;;;;;;;21.55;15.82;;;;;;;8.40;100.00;92654.03;2559202;23;20008;-81
2023/05/16 03:41:56;;;;;;;21.65;16.15;;;;;;;8.41;100.00;92663.53;2556406;23;20013;-81
2023/05/16 03:43:02;;;;;;;16.80;15.00;;;;;;;8.40;100.00;92658.63;2537083;23;20403;-80
2023/05/16 03:44:12;;;;;;;21.00;16.52;;;;;;;8.39;100.00;92655.22;2534454;23;20006;-81
2023/05/16 03:45:21;;;;;;;18.38;16.10;;;;;;;8.40;100.00;92656.69;2524870;23;20369;-81
2023/05/16 03:46:30;;;;;;;19.05;16.17;;;;;;;8.44;100.00;92657.38;2524203;23;20382;-82
2023/05/16 03:47:36;;;;;;;19.50;15.77;;;;;;;8.40;100.00;92658.63;2524423;23;20007;-81
2023/05/16 03:48:41;;;;;;;19.60;15.60;;;;;;;8.41;100.00;92654.78;2546280;23;20396;-81
2023/05/16 03:49:49;;;;;;;22.27;16.05;;;;;;;8.44;100.00;92665.38;2534269;23;19998;-81
2023/05/16 03:50:57;;;;;;;20.67;15.95;;;;;;;8.41;100.00;92663.53;2535828;23;20017;-81
2023/05/16 03:52:07;;;;;;;18.00;15.18;;;;;;;8.42;100.00;92657.03;2545096;23;20336;-80
2023/05/16 03:53:17;;;;;;;19.60;16.05;;;;;;;8.44;100.00;92659.28;2524778;23;20077;-81
2023/05/16 03:54:25;;;;;;;20.23;15.77;;;;;;;8.44;100.00;92668.03;2524568;23;20006;-81
2023/05/16 03:55:31;;;;;;;19.30;15.13;;;;;;;8.41;100.00;92665.44;2524317;23;20006;-81
2023/05/16 03:56:39;;;;;;;20.30;16.00;;;;;;;8.41;100.00;92665.44;2534764;23;20038;-81
2023/05/16 03:57:48;;;;;;;21.38;16.00;;;;;;;8.33;100.00;92664.78;2534610;23;20010;-81
2023/05/16 03:58:54;;;;;;;25.70;16.67;;;;;;;8.29;100.00;92659.53;2534923;23;20440;-81
2023/05/16 04:00:02;;;;;;;20.55;15.98;;;;;;;8.33;100.00;92664.78;2546550;23;20108;-81
2023/05/16 04:01:10;;;;;;;19.67;15.88;;;;;;;8.27;100.00;92669.88;2557630;23;20079;-81
2023/05/16 04:02:17;;;;;;;18.25;15.52;;;;;;;8.28;100.00;92666.03;2534704;23;20014;-81
2023/05/16 04:03:27;;;;;;;20.65;16.13;;;;;;;8.24;100.00;92667.28;2523895;23;20088;-82
2023/05/16 04:04:32;;;;;;;23.23;15.82;;;;;;;8.20;100.00;92662.00;2536506;23;20029;-82
2023/05/16 04:05:40;;;;;;;20.92;15.68;;;;;;;8.28;100.00;92659.97;2546162;23;20008;-80
2023/05/16 04:06:45;;;;;;;19.65;15.30;;;;;;;8.29;100.00;92658.78;2534267;23;20337;-81
2023/05/16 04:07:53;;;;;;;18.02;15.18;;;;;;;8.29;100.00;92675.53;2534966;23;20017;-81
2023/05/16 04:09:01;;;;;;;25.73;15.45;;;;;;;8.32;100.00;92664.06;2546931;23;19997;-81
2023/05/16 04:10:09;;;;;;;20.95;15.18;;;;;;;8.32;100.00;92664.06;2559316;23;20008;-81
2023/05/16 04:11:12;;;;;;;21.23;16.35;;;;;;;8.32;100.00;92664.06;2556255;23;20088;-81
2023/05/16 04:12:19;;;;;;;18.77;15.95;;;;;;;8.37;100.00;92670.84;2545607;23;20005;-81
2023/05/16 04:13:24;;;;;;;22.52;16.88;;;;;;;8.29;100.00;92664.88;2535739;23;20125;-81
2023/05/16 04:14:33;;;;;;;19.95;16.67;;;;;;;8.30;100.00;92666.38;2534242;23;20053;-81
2023/05/16 04:15:43;;;;;;;19.70;16.52;;;;;;;8.30;100.00;92655.75;2547113;23;20021;-81
2023/05/16 04:16:51;;;;;;;26.35;16.52;;;;;;;8.26;100.00;92668.38;2547375;23;20071;-81
2023/05/16 04:17:59;;;;;;;20.55;16.85;;;;;;;8.23;100.00;92668.44;2546868;23;20726;-82
2023/05/16 04:19:06;;;;;;;25.85;17.08;;;;;;;8.24;100.00;92667.28;2534784;23;20013;-81
2023/05/16 04:20:13;;;;;;;22.40;16.30;;;;;;;8.20;100.00;92662.00;2535980;23;20526;-81
2023/05/16 04:21:20;;;;;;;29.35;17.40;;;;;;;8.24;100.00;92667.28;2546748;23;20043;-81
2023/05/16 04:22:26;;;;;;;25.15;18.70;;;;;;;8.19;100.00;92665.09;2546587;23;20427;-82
2023/05/16 04:23:30;;;;;;;25.95;18.60;;;;;;;8.22;100.00;92667.69;2546223;23;20348;-81
2023/05/16 04:24:37;;;;;;;23.17;17.45;;;;;;;8.17;100.00;92662.09;2533842;23;20037;-81
2023/05/16 04:25:43;;;;;;;26.48;17.95;;;;;;;8.17;100.00;92662.09;2546983;23;20009;-81
2023/05/16 04:26:50;;;;;;;25.70;19.75;;;;;;;8.18;100.00;92663.59;2557608;23;20005;-81
2023/05/16 04:27:58;;;;;;;23.33;18.50;;;;;;;8.15;100.00;92667.06;2545485;23;20360;-82
2023/05/16 04:29:11;;;;;;;26.08;18.80;;;;;;;8.14;100.00;92663.66;2535285;23;20030;-80
2023/05/16 04:30:18;;;;;;;24.50;19.20;;;;;;;8.21;100.00;92670.75;2525795;23;20058;-81
2023/05/16 04:31:30;;;;;;;27.95;18.30;;;;;;;8.19;100.00;92668.50;2534700;23;20013;-81
2023/05/16 04:32:37;;;;;;;26.65;19.15;;;;;;;8.18;100.00;92664.34;2525452;23;20010;-81
2023/05/16 04:33:44;;;;;;;26.40;17.73;;;;;;;8.24;100.00;92664.59;2524173;23;20003;-82
2023/05/16 04:34:52;;;;;;;25.63;19.98;;;;;;;8.26;100.00;92668.38;2532512;23;20020;-80
2023/05/16 04:35:58;;;;;;;25.40;20.15;;;;;;;8.23;100.00;92660.44;2555205;23;20072;-80
2023/05/16 04:37:06;;;;;;;28.40;19.63;;;;;;;8.22;100.00;92661.63;2554104;23;20015;-81
2023/05/16 04:38:15;;;;;;;27.92;19.27;;;;;;;8.21;100.00;92665.41;2534506;23;20006;-81
2023/05/16 04:39:24;;;;;;;23.95;18.52;;;;;;;8.24;100.00;92665.34;2532163;23;20010;-80
2023/05/16 04:40:30;;;;;;;25.67;19.35;;;;;;;8.24;100.00;92665.34;2522231;23;20110;-82
2023/05/16 04:41:31;;;;;;;28.65;19.48;;;;;;;8.21;100.00;92668.84;2521301;23;20010;-81
2023/05/16 04:42:32;;;;;;;27.40;19.13;;;;;;;8.26;100.00;92668.38;2532307;23;20006;-81
2023/05/16 04:43:34;;;;;;;27.85;20.17;;;;;;;8.24;100.00;92667.28;2531538;23;20002;-81
2023/05/16 04:44:35;;;;;;;28.80;21.45;;;;;;;8.22;100.00;92672.28;2531525;23;20005;-81
2023/05/16 04:45:36;;;;;;;27.80;20.80;;;;;;;8.22;100.00;92665.03;2544107;23;20041;-81
2023/05/16 04:46:37;;;;;;;33.08;21.83;;;;;;;8.20;100.00;92664.69;2544129;23;20092;-82
2023/05/16 04:47:38;;;;;;;28.70;21.50;;;;;;;8.19;100.00;92670.41;2532181;23;20333;-81
2023/05/16 04:48:39;;;;;;;32.20;20.73;;;;;;;8.16;100.00;92663.25;2520053;23;20007;-81
2023/05/16 04:49:41;;;;;;;28.60;21.20;;;;;;;8.15;100.00;92664.41;2531923;23;20016;-81
2023/05/16 04:50:44;;;;;;;32.13;22.33;;;;;;;8.18;100.00;92666.25;2531783;23;20024;-81
2023/05/16 04:51:49;;;;;;;32.33;22.65;;;;;;;8.20;100.00;92667.34;2520902;23;20037;-80
2023/05/16 04:52:50;;;;;;;33.47;22.02;;;;;;;8.23;100.00;92671.84;2546025;23;20031;-81
2023/05/16 04:53:51;;;;;;;27.92;20.75;;;;;;;8.27;100.00;92669.13;2545610;23;20029;-80
2023/05/16 04:54:53;;;;;;;30.27;21.80;;;;;;;8.23;100.00;92671.84;2524312;23;20059;-80
2023/05/16 04:55:54;;;;;;;30.77;21.73;;;;;;;8.23;100.00;92669.19;2538056;23;20070;-80
2023/05/16 04:56:56;;;;;;;29.58;21.15;;;;;;;8.25;100.00;92669.53;2524965;23;20013;-80
2023/05/16 04:57:57;;;;;;;32.22;22.27;;;;;;;8.27;100.00;92674.44;2526277;23;20006;-80
2023/05/16 04:58:58;;;;;;;29.52;22.48;;;;;;;8.24;100.00;92672.59;2521175;23;20006;-81
2023/05/16 04:59:59;;;;;;;32.60;22.80;;;;;;;8.24;100.00;92672.59;2520301;23;20006;-82
2023/05/16 05:01:00;;;;;;;32.45;22.92;;;;;;;8.24;100.00;92670.69;2531560;23;20016;-81
2023/05/16 05:02:05;;;;;;;36.42;23.30;;;;;;;8.26;100.00;92673.69;2544981;23;20408;-81
2023/05/16 05:03:07;;;;;;;45.17;27.58;;;;;;;8.38;100.00;92677.66;2532663;23;20598;-81
2023/05/16 05:04:08;;;;;;;43.08;25.60;;;;;;;8.39;100.00;92675.75;2519892;23;20038;-80
2023/05/16 05:05:10;;;;;;;43.00;26.33;;;;;;;8.35;100.00;92673.13;2520318;23;20274;-81
2023/05/16 05:06:11;;;;;;;42.65;27.13;;;;;;;8.29;100.00;92675.53;2532215;23;20035;-81
2023/05/16 05:07:14;;;;;;;46.30;29.63;;;;;;;8.22;100.00;92670.34;2532230;23;20011;-81
2023/05/16 05:08:15;;;;;;;52.05;29.92;;;;;;;8.15;100.00;92667.06;2520746;23;20013;-81
2023/05/16 05:09:16;;;;;;;46.53;29.67;;;;;;;8.16;100.00;92671.97;2544483;23;20010;-81
2023/05/16 05:10:19;;;;;;;46.65;27.95;;;;;;;8.19;100.00;92676.50;2556279;23;20012;-81
2023/05/16 05:11:26;;;;;;;49.40;29.70;;;;;;;8.21;100.00;92678.72;2532320;23;20022;-81
2023/05/16 05:12:27;;;;;;;49.80;29.77;;;;;;;8.19;100.00;92675.75;2522438;23;20037;-81
2023/05/16 05:13:40;;;;;;;48.63;29.15;;;;;;;8.21;100.00;92684.84;2520767;23;20006;-90
2023/05/16 05:14:42;;;;;;;46.72;28.98;;;;;;;8.26;100.00;92680.94;2524942;23;20010;-86
2023/05/16 05:15:44;;;;;;;48.30;28.73;;;;;;;8.25;100.00;92676.75;2533179;23;20073;-81
2023/05/16 05:16:45;;;;;;;47.55;30.38;;;;;;;8.25;100.00;92677.53;2531705;23;20006;-82
2023/05/16 05:17:46;;;;;;;51.42;29.73;;;;;;;8.20;100.00;92677.25;2519450;23;20017;-81
2023/05/16 05:18:47;;;;;;;56.72;30.80;;;;;;;8.16;100.00;92681.88;2519565;23;20428;-81
2023/05/16 05:19:48;;;;;;;51.58;29.15;;;;;;;8.15;100.00;92678.47;2519627;23;20006;-80
2023/05/16 05:20:51;;;;;;;48.75;30.42;;;;;;;8.17;100.00;92672.75;2531874;23;20030;-80
2023/05/16 05:21:52;;;;;;;48.83;28.70;;;;;;;8.21;100.00;92674.19;2531837;23;20009;-80
2023/05/16 05:22:53;;;;;;;42.58;28.02;;;;;;;8.25;100.00;92676.75;2519270;23;20002;-80
2023/05/16 05:23:54;;;;;;;47.70;29.35;;;;;;;8.27;100.00;92671.78;2519886;23;20018;-80
2023/05/16 05:24:55;;;;;;;55.28;31.02;;;;;;;8.22;100.00;92677.59;2519502;23;20453;-81
2023/05/16 05:25:56;;;;;;;57.00;30.85;;;;;;;8.26;100.00;92686.25;2519568;23;20030;-80
2023/05/16 05:26:57;;;;;;;47.78;29.55;;;;;;;8.35;100.00;92683.03;2531118;23;20714;-80
2023/05/16 05:27:58;;;;;;;49.17;30.67;;;;;;;8.27;100.00;92687.75;2531147;23;20002;-80
2023/05/16 05:28:59;;;;;;;53.60;31.55;;;;;;;8.20;100.00;92687.88;2519178;23;20219;-81
2023/05/16 05:30:01;;;;;;;46.17;30.40;;;;;;;8.21;100.00;92689.38;2519217;23;20017;-80
2023/05/16 05:31:04;;;;;;;53.92;31.63;;;;;;;8.20;100.00;92693.97;2519260;23;20348;-80